Gahagan, Louisiana
Current Conditions -  °F | °C
As of 8:15 AM on Sunday 25 Jan 2015 (Local Time) from KIER Reporting Station
Clear Clear  
Wind Chill: 44°   Ceiling: Unl
Heat Index: 44°   Visibility: 10mi
Dew Point: 38°   Wind: 0mph
Humidity: 77%   Direction: NA
Pressure: 29.94"   Gusts: NA
Location:  32.1001°N, 93.2912°W
Report Text: KIER 251415Z AUTO 00000KT 10SM CLR 07/03 A2994 RMK AO2 T00680031
Loading
Personal Weather Stations






























Interactive Weather Map New forecast layout! Learn more

10-Day Weather Forecast

Advertisements
Track Severe Weather on mobile